Latest Coastal Weather Observations for Ceduna

IDS60701

Issued at 10:31 am CDT Friday 9 December 2016 (issued every 10 minutes, with the page automatically refreshed every 10 minutes)

About coastal observations | Map of coastal stations | Coastal observations for SA | Marine services | Other Formats
Station Details ID: 018012 Name: CEDUNA AMO Lat: -32.13 Lon: 133.70 Height: 15.3 m
Data from the previous 72 hours. | See also: Recent months at Ceduna
Date/Time
CDT
Temp
°C
Wind Pressure Rain since
9am
mm
Weather Cloud Vis
km
Sea
Height
m
Swell
Dir  Spd
kts
Gust
kts
hPa Trend Height
m
Period
s
Dir
09/10:30am 19.7 SSE 10 18 1022.9 - 0.0 - Partly cloudy 10 - - - -
09/10:00am 17.9 SE 8 13 1023.1 - 0.0 - Cloudy 10 - - - -
09/09:30am 17.7 ESE 9 15 1023.2 - 0.0 - Cloudy 10 - - - -
09/09:00am 16.7 SE 8 12 1023.2 R 0.0 - Cloudy 10 - - - -
09/08:30am 16.0 ESE 9 12 1022.9 - 0.0 - Cloudy 10 - - - -
09/08:00am 15.8 E 4 5 1022.8 - 0.0 - Cloudy 10 - - - -
09/07:30am 15.0 E 5 6 1022.4 - 0.0 - Partly cloudy 10 - - - -
09/07:00am 14.5 ENE 4 5 1021.9 - 0.0 - Partly cloudy 10 - - - -
09/06:30am 15.1 ESE 7 9 1021.6 - 0.0 - Partly cloudy 10 - - - -
09/06:00am 15.7 SE 8 10 1021.2 R 0.0 - Cloudy 10 - - - -
09/05:30am 15.0 SE 5 5 1020.9 - 0.0 - Cloudy 10 - - - -
09/05:00am 14.3 SSE 6 7 1020.9 - 0.0 - Partly cloudy 10 - - - -
09/04:30am 16.1 SSE 11 15 1020.8 - 0.0 - Cloudy 10 - - - -
09/04:00am 15.8 SE 7 8 1020.6 - 0.0 - Partly cloudy 10 - - - -
09/03:30am 16.0 SE 7 8 1020.5 - 0.0 - Cloudy 10 - - - -
09/03:00am 16.2 S 8 10 1020.6 R 0.0 - Cloudy 10 - - - -
09/02:30am 15.6 S 7 9 1020.6 - 0.0 - Partly cloudy 10 - - - -
09/02:00am 16.5 S 9 13 1020.7 - 0.0 - Partly cloudy 10 - - - -
09/01:30am 16.1 SSE 9 11 1020.9 - 0.0 - Partly cloudy 10 - - - -
09/01:00am 16.5 SSE 10 15 1020.8 - 0.0 - Partly cloudy 10 - - - -
09/12:30am 16.0 S 9 11 1021.1 - 0.0 - Partly cloudy 10 - - - -
09/12:00am 16.0 S 9 12 1021.1 R 0.0 - Partly cloudy 10 - - - -
 
Date/Time
CDT
Temp
°C
Wind Pressure Rain since
9am
mm
Weather Cloud Vis
km
Sea
Height
m
Swell
Dir  Spd
kts
Gust
kts
hPa Trend Height
m
Period
s
Dir
08/11:30pm 16.0 S 10 13 1021.0 - 0.0 - Partly cloudy 10 - - - -
08/11:00pm 16.6 S 13 17 1020.7 - 0.0 - Partly cloudy 10 - - - -
08/10:30pm 16.7 S 11 15 1020.5 - 0.0 - Partly cloudy 10 - - - -
08/10:00pm 16.3 S 13 17 1020.3 - 0.0 - Partly cloudy 10 - - - -
08/09:30pm 16.6 S 11 14 1020.2 - 0.0 - Partly cloudy 10 - - - -
08/09:00pm 16.6 S 14 20 1019.8 R 0.0 - Partly cloudy 10 - - - -
08/08:30pm 17.0 SSW 14 19 1019.2 - 0.0 - Partly cloudy 10 - - - -
08/08:00pm 17.6 SSW 15 21 1018.7 - 0.0 - Partly cloudy 10 - - - -
08/07:30pm 18.3 SSW 15 19 1018.4 - 0.0 - Partly cloudy 10 - - - -
08/07:00pm 18.8 SSW 16 21 1018.0 - 0.0 - Partly cloudy 10 - - - -
08/06:30pm 18.8 SSW 19 25 1017.8 - 0.0 - - 10 - - - -
08/06:00pm 19.1 SSW 18 22 1017.4 R 0.0 - Mostly clear 10 - - - -
08/05:30pm 20.6 SSW 18 23 1017.4 - 0.0 - Partly cloudy 10 - - - -
08/05:00pm 20.4 SSW 18 24 1017.3 - 0.0 - Partly cloudy 10 - - - -
08/04:30pm 20.4 SW 19 25 1017.2 - 0.0 - Partly cloudy 10 - - - -
08/04:00pm 21.7 SSW 18 24 1017.2 - 0.0 - Partly cloudy 10 - - - -
08/03:30pm 21.5 SW 19 23 1016.9 - 0.0 - Partly cloudy 10 - - - -
08/03:00pm 21.8 SSW 18 23 1016.9 R 0.0 - Mostly clear 10 - - - -
08/02:30pm 20.8 SW 19 24 1017.1 - 0.0 - - 10 - - - -
08/02:00pm 21.1 SW 19 24 1017.3 - 0.0 - - 10 - - - -
08/01:30pm 20.8 SW 18 22 1017.3 - 0.0 - Partly cloudy 10 - - - -
08/01:00pm 20.5 WSW 19 25 1017.3 - 0.0 - Partly cloudy 10 - - - -
08/12:30pm 20.8 SW 19 24 1017.0 - 0.0 - Partly cloudy 10 - - - -
08/12:00pm 20.0 SW 19 25 1016.6 R 0.0 - - 10 - - - -
08/11:30am 19.5 SW 21 29 1016.8 - 0.0 - Partly cloudy 10 - - - -
08/11:00am 18.6 SW 19 26 1016.6 - 0.0 - Partly cloudy 10 - - - -
08/10:30am 19.5 WSW 17 23 1016.3 - 0.0 - Partly cloudy 10 - - - -
08/10:00am 18.8 SW 16 22 1015.8 - 0.0 - Partly cloudy 10 - - - -
08/09:30am 19.1 SW 18 24 1015.3 - 0.0 - Partly cloudy 10 - - - -
08/09:00am 19.1 SW 17 23 1015.0 R 0.6 - Mostly cloudy 10 - - - -
08/08:30am 17.6 SW 19 24 1014.7 - 0.6 - Partly cloudy 10 - - - -
08/08:00am 18.3 SW 16 24 1014.2 - 0.6 - Partly cloudy 10 - - - -
08/07:30am 17.1 SW 21 30 1013.6 - 0.6 - Partly cloudy 10 - - - -
08/07:14am 16.9 SW 16 27 1013.1 - 0.6 - Partly cloudy 10 - - - -
08/07:00am 16.7 SW 14 19 1013.1 - 0.6 - Partly cloudy 10 - - - -
08/06:30am 17.1 SW 16 23 1012.8 - 0.6 - Partly cloudy 10 - - - -
08/06:00am 16.9 SW 16 22 1012.4 R 0.6 - Cloudy 10 - - - -
08/05:30am 17.2 SW 17 24 1012.1 - 0.6 - Partly cloudy 10 - - - -
08/05:00am 17.2 SW 19 25 1011.8 - 0.6 - Partly cloudy 10 - - - -
08/04:30am 17.2 SW 20 26 1011.4 - 0.6 - Partly cloudy 10 - - - -
08/04:00am 17.2 SW 19 28 1011.0 - 0.6 - Partly cloudy 10 - - - -
08/03:30am 17.4 SW 21 27 1010.7 - 0.6 - Partly cloudy 10 - - - -
08/03:00am 17.1 SW 20 27 1010.5 R 0.6 - Mostly cloudy 10 - - - -
08/02:52am 17.1 SW 20 30 1010.5 - 0.6 - Partly cloudy 10 - - - -
08/02:30am 17.3 SW 20 26 1010.4 - 0.6 - Partly cloudy 10 - - - -
08/02:00am 17.4 SW 26 33 1009.9 - 0.6 - Partly cloudy 10 - - - -
08/01:30am 17.7 SW 26 34 1009.8 - 0.6 - Partly cloudy 10 - - - -
08/01:00am 18.0 SW 23 31 1009.9 - 0.6 - Cloudy 10 - - - -
08/12:30am 18.5 SW 23 32 1009.4 - 0.6 - Partly cloudy 10 - - - -
08/12:00am 19.1 SW 24 34 1008.7 R 0.6 - Partly cloudy 10 - - - -
 
Date/Time
CDT
Temp
°C
Wind Pressure Rain since
9am
mm
Weather Cloud Vis
km
Sea
Height
m
Swell
Dir  Spd
kts
Gust
kts
hPa Trend Height
m
Period
s
Dir
07/11:50pm 19.3 WSW 22 32 1008.7 - 0.6 - Partly cloudy 10 - - - -
07/11:30pm 19.3 SW 19 27 1008.2 - 0.6 - Partly cloudy 10 - - - -
07/11:17pm 19.3 SW 23 33 1008.2 - 0.6 - Partly cloudy 10 - - - -
07/11:00pm 19.6 SW 23 31 1007.8 - 0.6 - Partly cloudy 10 - - - -
07/10:30pm 19.6 SW 24 34 1007.2 - 0.6 - - 10 - - - -
07/10:02pm 19.7 SW 21 31 1006.3 - 0.6 - Partly cloudy 10 - - - -
07/10:00pm 19.9 SW 21 30 1006.0 - 0.6 - Partly cloudy 10 - - - -
07/09:30pm 21.0 SW 29 40 1004.7 - 0.6 - Partly cloudy 8 - - - -
07/09:29pm 21.1 SW 29 40 1004.7 - 0.6 - Partly cloudy 9 - - - -
07/09:24pm 21.2 SW 23 40 1005.0 - 0.4 - Partly cloudy 10 - - - -
07/09:20pm 23.6 SW 18 29 1004.8 - 0.4 - Partly cloudy 10 - - - -
07/09:00pm 25.2 WSW 18 23 1003.5 R 0.0 - Partly cloudy 10 - - - -
07/08:49pm 26.5 WSW 23 32 1003.2 - 0.0 - Partly cloudy 10 - - - -
07/08:37pm 27.3 WNW 18 34 1002.9 - 0.0 - Partly cloudy 10 - - - -
07/08:34pm 28.7 WNW 14 31 1002.5 - 0.0 - Partly cloudy 10 - - - -
07/08:30pm 31.1 N 9 20 1001.6 - 0.0 - Partly cloudy 10 - - - -
07/08:00pm 33.1 E 4 6 999.9 - 0.0 - - 10 - - - -
07/07:30pm 33.4 CALM 0 0 999.5 - 0.0 - - 10 - - - -
07/07:00pm 34.3 SSE 3 6 999.9 - 0.0 - - 10 - - - -
07/06:30pm 33.7 SSW 5 7 1000.7 - 0.0 - - 10 - - - -
07/06:00pm 34.0 SSW 7 9 1000.9 F 0.0 - - 10 - - - -
07/05:30pm 33.5 SSW 11 13 1001.5 - 0.0 - Partly cloudy 10 - - - -
07/05:00pm 33.6 SSW 10 13 1002.2 - 0.0 - - 10 - - - -
07/04:30pm 31.5 SSW 11 15 1003.0 - 0.0 - - 10 - - - -
07/04:00pm 31.5 SW 14 17 1003.5 - 0.0 - - 10 - - - -
07/03:30pm 32.9 SSW 13 16 1004.0 - 0.0 - Partly cloudy 10 - - - -
07/03:00pm 33.8 SW 10 15 1004.7 F 0.0 - Mostly clear 10 - - - -
07/02:30pm 33.8 SW 8 12 1005.2 - 0.0 - Partly cloudy 10 - - - -
07/02:00pm 33.1 SW 7 16 1006.0 - 0.0 - Partly cloudy 10 - - - -
07/01:30pm 32.2 SW 7 9 1006.8 - 0.0 - - 10 - - - -
07/01:00pm 30.9 SW 10 12 1007.7 - 0.0 - - 10 - - - -
07/12:30pm 30.0 SSW 9 11 1008.4 - 0.0 - Partly cloudy 10 - - - -
07/12:00pm 27.8 SW 8 10 1009.1 F 0.0 - - 10 - - - -
07/11:30am 28.0 WSW 4 7 1009.6 - 0.0 - Partly cloudy 10 - - - -
07/11:00am 26.5 WSW 7 10 1010.1 - 0.0 - Partly cloudy 10 - - - -
07/10:30am 27.3 NNW 7 12 1010.4 - 0.0 - - 10 - - - -
07/10:00am 24.9 N 5 7 1010.8 - 0.0 - - 10 - - - -
07/09:30am 23.8 NNE 2 5 1011.2 - 0.0 - Partly cloudy 10 - - - -
07/09:00am 22.4 SE 3 5 1011.6 F 0.0 - Partly cloudy 10 - - - -
07/08:30am 20.0 SE 5 6 1011.8 - 0.0 - Partly cloudy 10 - - - -
07/08:00am 18.6 SE 4 6 1011.9 - 0.0 - Partly cloudy 10 - - - -
07/07:30am 16.3 E 3 5 1011.8 - 0.0 - Partly cloudy 10 - - - -
07/07:00am 13.7 CALM 0 0 1011.7 - 0.0 - Partly cloudy 10 - - - -
07/06:30am 12.4 CALM 0 0 1011.7 - 0.0 - - 10 - - - -
07/06:00am 13.0 CALM 0 0 1012.0 F 0.0 - Mostly clear 10 - - - -
07/05:30am 12.8 CALM 0 0 1011.6 - 0.0 - Partly cloudy 10 - - - -
07/05:00am 13.0 CALM 0 1 1011.5 - 0.0 - Partly cloudy 10 - - - -
07/04:30am 13.6 NE 4 5 1011.8 - 0.0 - Partly cloudy 10 - - - -
07/04:00am 13.4 E 4 5 1011.6 - 0.0 - - 10 - - - -
07/03:30am 13.5 SE 5 7 1011.8 - 0.0 - Partly cloudy 10 - - - -
07/03:00am 13.7 E 1 5 1012.2 F 0.0 - Partly cloudy 10 - - - -
07/02:30am 13.4 ESE 5 6 1012.4 - 0.0 - Partly cloudy 10 - - - -
07/02:00am 13.9 ESE 5 6 1013.0 - 0.0 - Partly cloudy 10 - - - -
07/01:30am 13.9 ESE 4 5 1013.7 - 0.0 - - 10 - - - -
07/01:00am 14.6 ESE 5 7 1014.0 - 0.0 - - 10 - - - -
07/12:30am 15.6 SE 6 8 1014.2 - 0.0 - - 10 - - - -
07/12:00am 15.7 E 5 7 1014.6 F 0.0 - - 10 - - - -
 
Date/Time
CDT
Temp
°C
Wind Pressure Rain since
9am
mm
Weather Cloud Vis
km
Sea
Height
m
Swell
Dir  Spd
kts
Gust
kts
hPa Trend Height
m
Period
s
Dir
06/11:30pm 16.6 SE 7 9 1014.8 - 0.0 - - 10 - - - -
06/11:00pm 17.0 SSE 9 11 1015.0 - 0.0 - - 10 - - - -
06/10:30pm 17.3 SSE 10 13 1015.1 - 0.0 - Partly cloudy 10 - - - -
06/10:00pm 17.6 SSE 13 16 1015.1 - 0.0 - Partly cloudy 10 - - - -
06/09:30pm 17.8 SSE 14 19 1015.1 - 0.0 - Partly cloudy 10 - - - -
06/09:00pm 18.0 SSE 13 16 1014.9 F 0.0 - Mostly clear 10 - - - -
06/08:30pm 18.6 S 12 16 1014.6 - 0.0 - Partly cloudy 10 - - - -
06/08:00pm 19.1 S 14 18 1014.3 - 0.0 - Partly cloudy 10 - - - -
06/07:30pm 19.9 S 14 17 1014.2 - 0.0 - - 10 - - - -
06/07:00pm 21.2 S 13 16 1014.0 - 0.0 - Partly cloudy 10 - - - -
06/06:30pm 20.9 S 15 19 1013.8 - 0.0 - Cloudy 10 - - - -
06/06:00pm 22.2 S 13 17 1014.0 F 0.0 - Mostly cloudy 10 - - - -
06/05:30pm 22.8 S 13 16 1014.1 - 0.0 - - 10 - - - -
06/05:00pm 22.9 S 13 17 1014.1 - 0.0 - - 10 - - - -
06/04:30pm 23.5 S 13 16 1014.2 - 0.0 - - 10 - - - -
06/04:00pm 24.0 S 13 16 1014.3 - 0.0 - - 10 - - - -
06/03:30pm 23.6 S 13 16 1014.5 - 0.0 - - 10 - - - -
06/03:00pm 23.7 S 13 17 1014.8 F 0.0 - - 10 - - - -
06/02:30pm 22.3 S 13 16 1015.1 - 0.0 - - 10 - - - -
06/02:00pm 22.8 S 11 15 1015.5 - 0.0 - - 10 - - - -
06/01:30pm 22.0 SSW 13 17 1015.9 - 0.0 - - 10 - - - -
06/01:00pm 22.1 SSW 12 18 1016.4 - 0.0 - - 10 - - - -
06/12:30pm 22.4 S 8 11 1016.3 - 0.0 - - 10 - - - -
06/12:00pm 22.1 SSE 8 11 1016.3 R 0.0 - - 10 - - - -
06/11:30am 20.8 S 8 13 1016.5 - 0.0 - - 10 - - - -
06/11:00am 20.6 SSE 8 11 1016.4 - 0.0 - - 10 - - - -

Other Formats:

Comma delimited format used in spreadsheet applications
http://www.bom.gov.au/fwo/IDS60701/IDS60701.94653.axf

JavaScript Object Notation format (JSON) in row-major order
http://www.bom.gov.au/fwo/IDS60701/IDS60701.94653.json